Terminal Aerodrome Forecast
Issued by NWS Jacksonville, FL

Home | Current Version | Previous Version | Text Only | Print | Product List | Glossary On
Versions: 1 2 3 4 5 6 7 8 9
861
FTUS42 KJAX 232338
TAFGNV
TAF
KGNV 232338Z 2400/2424 21006KT P6SM BKN060
     FM240800 27009KT P6SM VCSH SCT015 BKN025
     FM241400 27014G22KT P6SM SCT025 BKN040=

USA.gov is the U.S. government's official web portal to all federal, state and local government web resources and services.